sensor_id;sensor_type;location;lat;lon;timestamp;P1;durP1;ratioP1;P2;durP2;ratioP2
9904;SDS011;4991;43.566;27.820;2023-02-01T00:00:23;18.80;;;13.30;;
9904;SDS011;4991;43.566;27.820;2023-02-01T00:02:49;23.27;;;13.57;;
9904;SDS011;4991;43.566;27.820;2023-02-01T00:05:14;22.53;;;13.30;;
9904;SDS011;4991;43.566;27.820;2023-02-01T00:07:40;23.77;;;13.73;;
9904;SDS011;4991;43.566;27.820;2023-02-01T00:10:06;22.67;;;14.13;;
9904;SDS011;4991;43.566;27.820;2023-02-01T00:12:32;21.57;;;12.93;;
9904;SDS011;4991;43.566;27.820;2023-02-01T00:14:58;23.27;;;13.40;;
9904;SDS011;4991;43.566;27.820;2023-02-01T00:17:23;22.30;;;13.73;;
9904;SDS011;4991;43.566;27.820;2023-02-01T00:19:49;23.50;;;14.67;;
9904;SDS011;4991;43.566;27.820;2023-02-01T00:22:15;24.17;;;14.83;;
9904;SDS011;4991;43.566;27.820;2023-02-01T00:24:41;23.27;;;15.37;;
9904;SDS011;4991;43.566;27.820;2023-02-01T00:27:06;27.30;;;14.27;;
9904;SDS011;4991;43.566;27.820;2023-02-01T00:29:32;25.00;;;14.77;;
9904;SDS011;4991;43.566;27.820;2023-02-01T00:31:58;23.63;;;13.93;;
9904;SDS011;4991;43.566;27.820;2023-02-01T00:34:23;22.33;;;13.93;;
9904;SDS011;4991;43.566;27.820;2023-02-01T00:36:49;25.37;;;14.57;;
9904;SDS011;4991;43.566;27.820;2023-02-01T00:39:15;23.47;;;13.07;;
9904;SDS011;4991;43.566;27.820;2023-02-01T00:41:41;18.70;;;12.53;;
9904;SDS011;4991;43.566;27.820;2023-02-01T00:44:06;20.73;;;12.50;;
9904;SDS011;4991;43.566;27.820;2023-02-01T00:46:32;20.40;;;12.87;;
9904;SDS011;4991;43.566;27.820;2023-02-01T00:48:58;17.53;;;11.30;;
9904;SDS011;4991;43.566;27.820;2023-02-01T00:51:25;17.70;;;11.83;;
9904;SDS011;4991;43.566;27.820;2023-02-01T00:53:52;21.17;;;12.33;;
9904;SDS011;4991;43.566;27.820;2023-02-01T00:56:18;19.77;;;11.63;;
9904;SDS011;4991;43.566;27.820;2023-02-01T00:58:44;20.83;;;13.10;;
9904;SDS011;4991;43.566;27.820;2023-02-01T01:01:11;19.63;;;12.07;;
9904;SDS011;4991;43.566;27.820;2023-02-01T01:03:39;19.63;;;12.87;;
9904;SDS011;4991;43.566;27.820;2023-02-01T01:06:08;21.07;;;13.50;;
9904;SDS011;4991;43.566;27.820;2023-02-01T01:08:45;23.27;;;13.47;;
9904;SDS011;4991;43.566;27.820;2023-02-01T01:11:15;20.53;;;13.63;;
9904;SDS011;4991;43.566;27.820;2023-02-01T01:13:43;22.20;;;13.73;;
9904;SDS011;4991;43.566;27.820;2023-02-01T01:16:11;23.50;;;13.77;;
9904;SDS011;4991;43.566;27.820;2023-02-01T01:18:37;20.30;;;12.53;;
9904;SDS011;4991;43.566;27.820;2023-02-01T01:21:06;23.20;;;14.47;;
9904;SDS011;4991;43.566;27.820;2023-02-01T01:23:34;21.73;;;13.70;;
9904;SDS011;4991;43.566;27.820;2023-02-01T01:26:00;19.93;;;13.43;;
9904;SDS011;4991;43.566;27.820;2023-02-01T01:28:29;22.90;;;14.47;;
9904;SDS011;4991;43.566;27.820;2023-02-01T01:30:55;22.73;;;14.10;;
9904;SDS011;4991;43.566;27.820;2023-02-01T01:33:20;23.33;;;14.67;;
9904;SDS011;4991;43.566;27.820;2023-02-01T01:35:46;21.80;;;13.47;;
9904;SDS011;4991;43.566;27.820;2023-02-01T01:38:11;26.03;;;15.30;;
9904;SDS011;4991;43.566;27.820;2023-02-01T01:40:37;23.73;;;13.77;;
9904;SDS011;4991;43.566;27.820;2023-02-01T01:43:05;21.40;;;14.10;;
9904;SDS011;4991;43.566;27.820;2023-02-01T01:45:39;24.30;;;14.03;;
9904;SDS011;4991;43.566;27.820;2023-02-01T01:48:06;24.37;;;13.83;;
9904;SDS011;4991;43.566;27.820;2023-02-01T01:50:57;23.20;;;14.13;;
9904;SDS011;4991;43.566;27.820;2023-02-01T01:53:26;21.13;;;13.37;;
9904;SDS011;4991;43.566;27.820;2023-02-01T01:55:57;20.03;;;11.57;;
9904;SDS011;4991;43.566;27.820;2023-02-01T01:58:24;19.57;;;12.37;;
9904;SDS011;4991;43.566;27.820;2023-02-01T02:00:52;23.93;;;14.23;;
9904;SDS011;4991;43.566;27.820;2023-02-01T02:03:24;21.23;;;12.90;;
9904;SDS011;4991;43.566;27.820;2023-02-01T02:05:53;22.93;;;14.33;;
9904;SDS011;4991;43.566;27.820;2023-02-01T02:08:23;20.30;;;13.17;;
9904;SDS011;4991;43.566;27.820;2023-02-01T02:10:51;24.83;;;15.47;;
9904;SDS011;4991;43.566;27.820;2023-02-01T02:13:36;20.80;;;13.37;;
9904;SDS011;4991;43.566;27.820;2023-02-01T02:21:39;20.90;;;13.43;;
9904;SDS011;4991;43.566;27.820;2023-02-01T02:24:33;20.23;;;12.73;;
9904;SDS011;4991;43.566;27.820;2023-02-01T02:27:05;19.27;;;12.60;;
9904;SDS011;4991;43.566;27.820;2023-02-01T02:35:30;22.73;;;14.20;;
9904;SDS011;4991;43.566;27.820;2023-02-01T02:43:23;18.80;;;12.73;;
9904;SDS011;4991;43.566;27.820;2023-02-01T02:46:38;19.70;;;12.33;;
9904;SDS011;4991;43.566;27.820;2023-02-01T02:49:33;20.37;;;11.67;;
9904;SDS011;4991;43.566;27.820;2023-02-01T02:52:06;18.60;;;11.00;;
9904;SDS011;4991;43.566;27.820;2023-02-01T02:54:57;21.87;;;11.53;;
9904;SDS011;4991;43.566;27.820;2023-02-01T02:57:26;19.97;;;12.13;;
9904;SDS011;4991;43.566;27.820;2023-02-01T03:00:16;22.90;;;12.13;;
9904;SDS011;4991;43.566;27.820;2023-02-01T03:03:03;21.13;;;12.33;;
9904;SDS011;4991;43.566;27.820;2023-02-01T03:05:49;18.50;;;12.30;;
9904;SDS011;4991;43.566;27.820;2023-02-01T03:08:18;23.80;;;14.00;;
9904;SDS011;4991;43.566;27.820;2023-02-01T03:10:50;20.60;;;12.93;;
9904;SDS011;4991;43.566;27.820;2023-02-01T03:19:00;22.67;;;13.37;;
9904;SDS011;4991;43.566;27.820;2023-02-01T03:24:48;23.03;;;14.30;;
9904;SDS011;4991;43.566;27.820;2023-02-01T03:27:27;24.17;;;14.03;;
9904;SDS011;4991;43.566;27.820;2023-02-01T03:32:25;22.27;;;13.53;;
9904;SDS011;4991;43.566;27.820;2023-02-01T03:34:51;22.93;;;14.53;;
9904;SDS011;4991;43.566;27.820;2023-02-01T03:37:22;25.70;;;14.90;;
9904;SDS011;4991;43.566;27.820;2023-02-01T03:39:57;20.87;;;13.03;;
9904;SDS011;4991;43.566;27.820;2023-02-01T03:42:37;22.77;;;14.27;;
9904;SDS011;4991;43.566;27.820;2023-02-01T03:45:11;23.50;;;14.17;;
9904;SDS011;4991;43.566;27.820;2023-02-01T03:47:43;25.00;;;13.13;;
9904;SDS011;4991;43.566;27.820;2023-02-01T03:50:15;23.03;;;14.60;;
9904;SDS011;4991;43.566;27.820;2023-02-01T03:52:48;25.93;;;14.40;;
9904;SDS011;4991;43.566;27.820;2023-02-01T03:55:19;21.93;;;13.50;;
9904;SDS011;4991;43.566;27.820;2023-02-01T03:58:29;22.53;;;14.30;;
9904;SDS011;4991;43.566;27.820;2023-02-01T04:00:43;19.70;;;12.50;;
9904;SDS011;4991;43.566;27.820;2023-02-01T04:03:10;20.83;;;13.07;;
9904;SDS011;4991;43.566;27.820;2023-02-01T04:05:36;21.47;;;13.53;;
9904;SDS011;4991;43.566;27.820;2023-02-01T04:08:01;20.70;;;12.30;;
9904;SDS011;4991;43.566;27.820;2023-02-01T04:10:27;20.53;;;12.33;;
9904;SDS011;4991;43.566;27.820;2023-02-01T04:12:53;22.27;;;12.83;;
9904;SDS011;4991;43.566;27.820;2023-02-01T04:15:18;22.87;;;12.97;;
9904;SDS011;4991;43.566;27.820;2023-02-01T04:17:44;22.17;;;14.00;;
9904;SDS011;4991;43.566;27.820;2023-02-01T04:20:10;22.87;;;12.87;;
9904;SDS011;4991;43.566;27.820;2023-02-01T04:22:35;25.13;;;13.87;;
9904;SDS011;4991;43.566;27.820;2023-02-01T04:25:01;22.23;;;13.57;;
9904;SDS011;4991;43.566;27.820;2023-02-01T04:27:28;20.40;;;12.37;;
9904;SDS011;4991;43.566;27.820;2023-02-01T04:29:53;22.20;;;13.07;;
9904;SDS011;4991;43.566;27.820;2023-02-01T04:32:19;18.40;;;11.77;;
9904;SDS011;4991;43.566;27.820;2023-02-01T04:34:45;18.03;;;11.37;;
9904;SDS011;4991;43.566;27.820;2023-02-01T04:37:11;19.83;;;12.00;;
9904;SDS011;4991;43.566;27.820;2023-02-01T04:39:37;15.57;;;9.87;;
9904;SDS011;4991;43.566;27.820;2023-02-01T04:42:02;15.67;;;9.20;;
9904;SDS011;4991;43.566;27.820;2023-02-01T04:44:28;17.50;;;10.43;;
9904;SDS011;4991;43.566;27.820;2023-02-01T04:46:54;16.43;;;10.23;;
9904;SDS011;4991;43.566;27.820;2023-02-01T04:49:20;18.53;;;11.27;;
9904;SDS011;4991;43.566;27.820;2023-02-01T04:51:46;17.23;;;10.73;;
9904;SDS011;4991;43.566;27.820;2023-02-01T04:54:12;18.93;;;10.97;;
9904;SDS011;4991;43.566;27.820;2023-02-01T04:56:38;16.03;;;10.17;;
9904;SDS011;4991;43.566;27.820;2023-02-01T04:59:04;17.03;;;11.47;;
9904;SDS011;4991;43.566;27.820;2023-02-01T05:01:30;17.10;;;11.03;;
9904;SDS011;4991;43.566;27.820;2023-02-01T05:03:56;19.97;;;10.93;;
9904;SDS011;4991;43.566;27.820;2023-02-01T05:06:22;17.40;;;11.43;;
9904;SDS011;4991;43.566;27.820;2023-02-01T05:08:48;15.83;;;10.67;;
9904;SDS011;4991;43.566;27.820;2023-02-01T05:11:13;15.63;;;9.30;;
9904;SDS011;4991;43.566;27.820;2023-02-01T05:13:58;18.77;;;11.40;;
9904;SDS011;4991;43.566;27.820;2023-02-01T05:16:24;18.17;;;10.67;;
9904;SDS011;4991;43.566;27.820;2023-02-01T05:18:51;16.73;;;10.90;;
9904;SDS011;4991;43.566;27.820;2023-02-01T05:21:17;8.73;;;5.53;;
9904;SDS011;4991;43.566;27.820;2023-02-01T05:23:43;14.93;;;10.30;;
9904;SDS011;4991;43.566;27.820;2023-02-01T05:26:28;15.67;;;10.70;;
9904;SDS011;4991;43.566;27.820;2023-02-01T05:28:53;15.43;;;8.87;;
9904;SDS011;4991;43.566;27.820;2023-02-01T05:31:19;12.87;;;7.87;;
9904;SDS011;4991;43.566;27.820;2023-02-01T05:33:45;13.40;;;8.60;;
9904;SDS011;4991;43.566;27.820;2023-02-01T05:36:11;16.90;;;9.47;;
9904;SDS011;4991;43.566;27.820;2023-02-01T05:38:36;14.63;;;9.70;;
9904;SDS011;4991;43.566;27.820;2023-02-01T05:41:02;14.97;;;11.10;;
9904;SDS011;4991;43.566;27.820;2023-02-01T05:43:28;15.30;;;9.37;;
9904;SDS011;4991;43.566;27.820;2023-02-01T05:45:53;15.83;;;10.27;;
9904;SDS011;4991;43.566;27.820;2023-02-01T05:48:19;14.90;;;9.40;;
9904;SDS011;4991;43.566;27.820;2023-02-01T05:50:46;14.47;;;9.60;;
9904;SDS011;4991;43.566;27.820;2023-02-01T05:53:11;14.20;;;9.00;;
9904;SDS011;4991;43.566;27.820;2023-02-01T05:55:37;15.00;;;10.07;;
9904;SDS011;4991;43.566;27.820;2023-02-01T05:58:03;17.00;;;9.30;;
9904;SDS011;4991;43.566;27.820;2023-02-01T06:00:29;15.40;;;8.83;;
9904;SDS011;4991;43.566;27.820;2023-02-01T06:02:55;14.23;;;9.00;;
9904;SDS011;4991;43.566;27.820;2023-02-01T06:05:21;13.73;;;9.43;;
9904;SDS011;4991;43.566;27.820;2023-02-01T06:07:47;15.57;;;9.60;;
9904;SDS011;4991;43.566;27.820;2023-02-01T06:10:15;15.50;;;9.30;;
9904;SDS011;4991;43.566;27.820;2023-02-01T06:12:42;13.53;;;9.53;;
9904;SDS011;4991;43.566;27.820;2023-02-01T06:15:08;14.97;;;9.00;;
9904;SDS011;4991;43.566;27.820;2023-02-01T06:17:33;14.20;;;8.60;;
9904;SDS011;4991;43.566;27.820;2023-02-01T06:19:59;15.50;;;9.83;;
9904;SDS011;4991;43.566;27.820;2023-02-01T06:22:25;14.37;;;9.37;;
9904;SDS011;4991;43.566;27.820;2023-02-01T06:24:50;15.80;;;9.07;;
9904;SDS011;4991;43.566;27.820;2023-02-01T06:27:16;14.40;;;9.50;;
9904;SDS011;4991;43.566;27.820;2023-02-01T06:29:41;12.90;;;8.97;;
9904;SDS011;4991;43.566;27.820;2023-02-01T06:32:07;14.83;;;9.10;;
9904;SDS011;4991;43.566;27.820;2023-02-01T06:34:33;15.23;;;8.73;;
9904;SDS011;4991;43.566;27.820;2023-02-01T06:36:59;12.43;;;8.73;;
9904;SDS011;4991;43.566;27.820;2023-02-01T06:39:25;11.90;;;7.60;;
9904;SDS011;4991;43.566;27.820;2023-02-01T06:41:52;14.57;;;8.20;;
9904;SDS011;4991;43.566;27.820;2023-02-01T06:44:18;15.73;;;8.97;;
9904;SDS011;4991;43.566;27.820;2023-02-01T06:46:43;12.67;;;9.33;;
9904;SDS011;4991;43.566;27.820;2023-02-01T06:49:09;10.87;;;7.53;;
9904;SDS011;4991;43.566;27.820;2023-02-01T06:51:34;10.93;;;7.53;;
9904;SDS011;4991;43.566;27.820;2023-02-01T06:54:00;12.63;;;8.00;;
9904;SDS011;4991;43.566;27.820;2023-02-01T06:56:26;15.37;;;8.80;;
9904;SDS011;4991;43.566;27.820;2023-02-01T06:58:52;11.23;;;8.07;;
9904;SDS011;4991;43.566;27.820;2023-02-01T07:01:18;12.67;;;7.93;;
9904;SDS011;4991;43.566;27.820;2023-02-01T07:03:48;16.20;;;9.70;;
9904;SDS011;4991;43.566;27.820;2023-02-01T07:06:16;17.87;;;10.47;;
9904;SDS011;4991;43.566;27.820;2023-02-01T07:08:42;12.77;;;8.20;;
9904;SDS011;4991;43.566;27.820;2023-02-01T07:11:09;13.93;;;8.80;;
9904;SDS011;4991;43.566;27.820;2023-02-01T07:13:37;12.43;;;8.13;;
9904;SDS011;4991;43.566;27.820;2023-02-01T07:16:04;12.57;;;7.87;;
9904;SDS011;4991;43.566;27.820;2023-02-01T07:18:32;15.63;;;7.80;;
9904;SDS011;4991;43.566;27.820;2023-02-01T07:20:58;8.90;;;6.13;;
9904;SDS011;4991;43.566;27.820;2023-02-01T07:23:25;13.67;;;7.80;;
9904;SDS011;4991;43.566;27.820;2023-02-01T07:25:54;8.93;;;5.73;;
9904;SDS011;4991;43.566;27.820;2023-02-01T07:28:21;11.03;;;6.40;;
9904;SDS011;4991;43.566;27.820;2023-02-01T07:30:47;13.93;;;7.47;;
9904;SDS011;4991;43.566;27.820;2023-02-01T07:33:19;12.00;;;8.40;;
9904;SDS011;4991;43.566;27.820;2023-02-01T07:35:47;11.03;;;7.10;;
9904;SDS011;4991;43.566;27.820;2023-02-01T07:38:13;12.90;;;7.90;;
9904;SDS011;4991;43.566;27.820;2023-02-01T07:40:40;12.23;;;8.37;;
9904;SDS011;4991;43.566;27.820;2023-02-01T07:43:06;10.97;;;8.17;;
9904;SDS011;4991;43.566;27.820;2023-02-01T07:45:33;15.77;;;7.43;;
9904;SDS011;4991;43.566;27.820;2023-02-01T07:48:00;12.10;;;7.30;;
9904;SDS011;4991;43.566;27.820;2023-02-01T07:50:26;11.00;;;7.57;;
9904;SDS011;4991;43.566;27.820;2023-02-01T07:52:51;13.60;;;8.17;;
9904;SDS011;4991;43.566;27.820;2023-02-01T07:55:19;9.03;;;6.90;;
9904;SDS011;4991;43.566;27.820;2023-02-01T07:57:45;13.10;;;8.13;;
9904;SDS011;4991;43.566;27.820;2023-02-01T08:00:11;10.03;;;5.57;;
9904;SDS011;4991;43.566;27.820;2023-02-01T08:02:59;12.07;;;9.13;;
9904;SDS011;4991;43.566;27.820;2023-02-01T08:05:24;10.73;;;7.53;;
9904;SDS011;4991;43.566;27.820;2023-02-01T08:07:50;10.50;;;7.23;;
9904;SDS011;4991;43.566;27.820;2023-02-01T08:10:16;11.20;;;7.57;;
9904;SDS011;4991;43.566;27.820;2023-02-01T08:12:42;16.13;;;9.23;;
9904;SDS011;4991;43.566;27.820;2023-02-01T08:15:15;14.10;;;7.63;;
9904;SDS011;4991;43.566;27.820;2023-02-01T08:17:48;11.30;;;7.17;;
9904;SDS011;4991;43.566;27.820;2023-02-01T08:20:17;14.30;;;9.30;;
9904;SDS011;4991;43.566;27.820;2023-02-01T08:22:44;11.27;;;6.80;;
9904;SDS011;4991;43.566;27.820;2023-02-01T08:25:10;7.53;;;5.40;;
9904;SDS011;4991;43.566;27.820;2023-02-01T08:27:36;12.93;;;8.13;;
9904;SDS011;4991;43.566;27.820;2023-02-01T08:30:03;10.87;;;6.77;;
9904;SDS011;4991;43.566;27.820;2023-02-01T08:32:30;13.80;;;6.93;;
9904;SDS011;4991;43.566;27.820;2023-02-01T08:34:56;10.13;;;7.43;;
9904;SDS011;4991;43.566;27.820;2023-02-01T08:37:21;8.53;;;5.90;;
9904;SDS011;4991;43.566;27.820;2023-02-01T08:39:47;10.10;;;7.20;;
9904;SDS011;4991;43.566;27.820;2023-02-01T08:42:15;12.87;;;7.73;;
9904;SDS011;4991;43.566;27.820;2023-02-01T08:44:59;13.73;;;8.43;;
9904;SDS011;4991;43.566;27.820;2023-02-01T08:47:25;11.13;;;7.50;;
9904;SDS011;4991;43.566;27.820;2023-02-01T08:49:50;9.77;;;6.30;;
9904;SDS011;4991;43.566;27.820;2023-02-01T08:52:16;12.50;;;6.20;;
9904;SDS011;4991;43.566;27.820;2023-02-01T08:54:42;8.67;;;5.73;;
9904;SDS011;4991;43.566;27.820;2023-02-01T08:57:08;10.10;;;7.20;;
9904;SDS011;4991;43.566;27.820;2023-02-01T08:59:34;10.93;;;6.27;;
9904;SDS011;4991;43.566;27.820;2023-02-01T09:02:00;9.30;;;6.63;;
9904;SDS011;4991;43.566;27.820;2023-02-01T09:04:26;12.33;;;5.67;;
9904;SDS011;4991;43.566;27.820;2023-02-01T09:06:52;7.43;;;4.97;;
9904;SDS011;4991;43.566;27.820;2023-02-01T09:09:20;11.87;;;7.63;;
9904;SDS011;4991;43.566;27.820;2023-02-01T09:11:47;13.50;;;8.37;;
9904;SDS011;4991;43.566;27.820;2023-02-01T09:14:12;8.63;;;6.57;;
9904;SDS011;4991;43.566;27.820;2023-02-01T09:16:38;10.73;;;8.07;;
9904;SDS011;4991;43.566;27.820;2023-02-01T09:19:03;11.90;;;7.87;;
9904;SDS011;4991;43.566;27.820;2023-02-01T09:21:29;0.00;;;0.00;;
9904;SDS011;4991;43.566;27.820;2023-02-01T09:23:55;0.00;;;0.00;;
9904;SDS011;4991;43.566;27.820;2023-02-01T09:26:20;0.00;;;0.00;;
9904;SDS011;4991;43.566;27.820;2023-02-01T09:28:46;0.00;;;0.00;;
9904;SDS011;4991;43.566;27.820;2023-02-01T09:31:12;0.00;;;0.00;;
9904;SDS011;4991;43.566;27.820;2023-02-01T09:33:37;0.00;;;0.00;;
9904;SDS011;4991;43.566;27.820;2023-02-01T09:36:03;0.00;;;0.00;;
9904;SDS011;4991;43.566;27.820;2023-02-01T09:38:30;0.00;;;0.00;;
9904;SDS011;4991;43.566;27.820;2023-02-01T09:40:57;0.00;;;0.00;;
9904;SDS011;4991;43.566;27.820;2023-02-01T09:48:47;0.30;;;0.30;;
9904;SDS011;4991;43.566;27.820;2023-02-01T09:51:15;0.00;;;0.00;;
9904;SDS011;4991;43.566;27.820;2023-02-01T09:53:48;0.00;;;0.00;;
9904;SDS011;4991;43.566;27.820;2023-02-01T09:56:36;0.00;;;0.00;;
9904;SDS011;4991;43.566;27.820;2023-02-01T10:01:49;0.00;;;0.00;;
9904;SDS011;4991;43.566;27.820;2023-02-01T10:04:15;0.00;;;0.00;;
9904;SDS011;4991;43.566;27.820;2023-02-01T10:15:05;0.10;;;0.10;;
9904;SDS011;4991;43.566;27.820;2023-02-01T10:17:48;0.10;;;0.10;;
9904;SDS011;4991;43.566;27.820;2023-02-01T10:28:36;0.23;;;0.23;;
9904;SDS011;4991;43.566;27.820;2023-02-01T10:31:04;0.20;;;0.20;;
9904;SDS011;4991;43.566;27.820;2023-02-01T10:33:34;0.10;;;0.10;;
9904;SDS011;4991;43.566;27.820;2023-02-01T10:36:23;0.10;;;0.10;;
9904;SDS011;4991;43.566;27.820;2023-02-01T10:38:56;0.10;;;0.10;;
9904;SDS011;4991;43.566;27.820;2023-02-01T10:41:24;0.10;;;0.10;;
9904;SDS011;4991;43.566;27.820;2023-02-01T10:44:05;0.10;;;0.10;;
9904;SDS011;4991;43.566;27.820;2023-02-01T10:46:37;0.10;;;0.10;;
9904;SDS011;4991;43.566;27.820;2023-02-01T10:49:04;0.00;;;0.00;;
9904;SDS011;4991;43.566;27.820;2023-02-01T10:54:21;0.00;;;0.00;;
9904;SDS011;4991;43.566;27.820;2023-02-01T10:56:57;0.10;;;0.10;;
9904;SDS011;4991;43.566;27.820;2023-02-01T10:59:27;0.10;;;0.10;;
9904;SDS011;4991;43.566;27.820;2023-02-01T11:02:00;0.00;;;0.00;;
9904;SDS011;4991;43.566;27.820;2023-02-01T11:04:44;0.10;;;0.10;;
9904;SDS011;4991;43.566;27.820;2023-02-01T11:07:18;0.00;;;0.00;;
9904;SDS011;4991;43.566;27.820;2023-02-01T11:09:52;0.10;;;0.10;;
9904;SDS011;4991;43.566;27.820;2023-02-01T11:12:36;0.10;;;0.10;;
9904;SDS011;4991;43.566;27.820;2023-02-01T11:17:45;0.00;;;0.00;;
9904;SDS011;4991;43.566;27.820;2023-02-01T11:20:40;0.10;;;0.10;;
9904;SDS011;4991;43.566;27.820;2023-02-01T11:23:16;0.10;;;0.10;;
9904;SDS011;4991;43.566;27.820;2023-02-01T11:25:52;0.00;;;0.00;;
9904;SDS011;4991;43.566;27.820;2023-02-01T11:28:20;0.10;;;0.10;;
9904;SDS011;4991;43.566;27.820;2023-02-01T11:30:50;0.00;;;0.00;;
9904;SDS011;4991;43.566;27.820;2023-02-01T11:33:19;0.10;;;0.10;;
9904;SDS011;4991;43.566;27.820;2023-02-01T11:35:47;0.10;;;0.10;;
9904;SDS011;4991;43.566;27.820;2023-02-01T11:38:26;0.40;;;0.40;;
9904;SDS011;4991;43.566;27.820;2023-02-01T11:40:53;0.00;;;0.00;;
9904;SDS011;4991;43.566;27.820;2023-02-01T11:43:26;0.00;;;0.00;;
9904;SDS011;4991;43.566;27.820;2023-02-01T11:45:57;0.07;;;0.07;;
9904;SDS011;4991;43.566;27.820;2023-02-01T11:48:26;0.10;;;0.10;;
9904;SDS011;4991;43.566;27.820;2023-02-01T11:57:03;0.10;;;0.10;;
9904;SDS011;4991;43.566;27.820;2023-02-01T12:03:04;0.10;;;0.10;;
9904;SDS011;4991;43.566;27.820;2023-02-01T12:13:43;0.10;;;0.10;;
9904;SDS011;4991;43.566;27.820;2023-02-01T12:16:40;0.10;;;0.10;;
9904;SDS011;4991;43.566;27.820;2023-02-01T12:19:33;0.30;;;0.30;;
9904;SDS011;4991;43.566;27.820;2023-02-01T12:22:10;0.10;;;0.10;;
9904;SDS011;4991;43.566;27.820;2023-02-01T12:25:00;0.10;;;0.10;;
9904;SDS011;4991;43.566;27.820;2023-02-01T12:27:44;0.10;;;0.10;;
9904;SDS011;4991;43.566;27.820;2023-02-01T12:33:27;0.10;;;0.10;;
9904;SDS011;4991;43.566;27.820;2023-02-01T12:38:42;0.10;;;0.10;;
9904;SDS011;4991;43.566;27.820;2023-02-01T12:49:22;6.47;;;2.50;;
9904;SDS011;4991;43.566;27.820;2023-02-01T12:51:58;6.67;;;3.47;;
9904;SDS011;4991;43.566;27.820;2023-02-01T12:54:45;5.97;;;3.50;;
9904;SDS011;4991;43.566;27.820;2023-02-01T12:57:13;5.83;;;3.80;;
9904;SDS011;4991;43.566;27.820;2023-02-01T12:59:54;4.93;;;2.70;;
9904;SDS011;4991;43.566;27.820;2023-02-01T13:02:40;4.67;;;3.27;;
9904;SDS011;4991;43.566;27.820;2023-02-01T13:05:17;7.47;;;2.93;;
9904;SDS011;4991;43.566;27.820;2023-02-01T13:07:53;4.30;;;2.77;;
9904;SDS011;4991;43.566;27.820;2023-02-01T13:10:35;4.37;;;3.27;;
9904;SDS011;4991;43.566;27.820;2023-02-01T13:15:43;6.27;;;3.37;;
9904;SDS011;4991;43.566;27.820;2023-02-01T13:18:19;3.80;;;3.40;;
9904;SDS011;4991;43.566;27.820;2023-02-01T13:20:49;4.97;;;3.23;;
9904;SDS011;4991;43.566;27.820;2023-02-01T13:25:52;3.33;;;2.87;;
9904;SDS011;4991;43.566;27.820;2023-02-01T13:36:49;3.10;;;2.73;;
9904;SDS011;4991;43.566;27.820;2023-02-01T13:39:31;3.90;;;2.63;;
9904;SDS011;4991;43.566;27.820;2023-02-01T13:42:21;4.80;;;2.80;;
9904;SDS011;4991;43.566;27.820;2023-02-01T13:44:56;3.77;;;2.70;;
9904;SDS011;4991;43.566;27.820;2023-02-01T13:47:30;2.73;;;2.37;;
9904;SDS011;4991;43.566;27.820;2023-02-01T13:50:00;3.37;;;2.53;;
9904;SDS011;4991;43.566;27.820;2023-02-01T13:52:40;3.83;;;3.37;;
9904;SDS011;4991;43.566;27.820;2023-02-01T13:57:47;3.97;;;2.40;;
9904;SDS011;4991;43.566;27.820;2023-02-01T14:23:44;11.07;;;4.13;;
9904;SDS011;4991;43.566;27.820;2023-02-01T14:26:14;6.27;;;3.60;;
9904;SDS011;4991;43.566;27.820;2023-02-01T14:28:46;7.27;;;4.13;;
9904;SDS011;4991;43.566;27.820;2023-02-01T14:31:39;6.17;;;4.57;;
9904;SDS011;4991;43.566;27.820;2023-02-01T14:34:11;4.63;;;3.70;;
9904;SDS011;4991;43.566;27.820;2023-02-01T14:37:23;5.20;;;3.73;;
9904;SDS011;4991;43.566;27.820;2023-02-01T14:55:39;6.77;;;3.93;;
9904;SDS011;4991;43.566;27.820;2023-02-01T14:58:06;6.70;;;3.57;;
9904;SDS011;4991;43.566;27.820;2023-02-01T15:00:56;5.67;;;4.00;;
9904;SDS011;4991;43.566;27.820;2023-02-01T15:06:13;7.00;;;4.20;;
9904;SDS011;4991;43.566;27.820;2023-02-01T15:08:48;5.17;;;3.57;;
9904;SDS011;4991;43.566;27.820;2023-02-01T15:11:14;6.77;;;3.97;;
9904;SDS011;4991;43.566;27.820;2023-02-01T15:13:47;6.17;;;4.03;;
9904;SDS011;4991;43.566;27.820;2023-02-01T15:16:15;5.33;;;4.07;;
9904;SDS011;4991;43.566;27.820;2023-02-01T15:18:42;8.43;;;4.00;;
9904;SDS011;4991;43.566;27.820;2023-02-01T15:23:47;5.77;;;3.87;;
9904;SDS011;4991;43.566;27.820;2023-02-01T15:26:29;5.43;;;3.90;;
9904;SDS011;4991;43.566;27.820;2023-02-01T15:28:59;5.87;;;3.80;;
9904;SDS011;4991;43.566;27.820;2023-02-01T15:31:32;7.23;;;4.60;;
9904;SDS011;4991;43.566;27.820;2023-02-01T15:34:03;6.10;;;4.00;;
9904;SDS011;4991;43.566;27.820;2023-02-01T15:36:28;9.80;;;4.50;;
9904;SDS011;4991;43.566;27.820;2023-02-01T15:39:13;10.47;;;5.33;;
9904;SDS011;4991;43.566;27.820;2023-02-01T15:41:45;8.70;;;5.50;;
9904;SDS011;4991;43.566;27.820;2023-02-01T15:44:37;9.73;;;5.77;;
9904;SDS011;4991;43.566;27.820;2023-02-01T15:47:07;7.23;;;5.07;;
9904;SDS011;4991;43.566;27.820;2023-02-01T15:49:39;7.17;;;5.30;;
9904;SDS011;4991;43.566;27.820;2023-02-01T15:52:40;10.07;;;6.43;;
9904;SDS011;4991;43.566;27.820;2023-02-01T15:55:04;6.90;;;5.00;;
9904;SDS011;4991;43.566;27.820;2023-02-01T15:57:34;4.97;;;4.10;;
9904;SDS011;4991;43.566;27.820;2023-02-01T16:00:06;9.23;;;4.63;;
9904;SDS011;4991;43.566;27.820;2023-02-01T16:03:05;6.43;;;4.53;;
9904;SDS011;4991;43.566;27.820;2023-02-01T16:05:34;5.57;;;3.57;;
9904;SDS011;4991;43.566;27.820;2023-02-01T16:08:13;6.00;;;4.50;;
9904;SDS011;4991;43.566;27.820;2023-02-01T16:10:48;9.10;;;5.20;;
9904;SDS011;4991;43.566;27.820;2023-02-01T16:13:16;6.73;;;4.63;;
9904;SDS011;4991;43.566;27.820;2023-02-01T16:15:42;8.03;;;5.40;;
9904;SDS011;4991;43.566;27.820;2023-02-01T16:18:08;8.33;;;5.00;;
9904;SDS011;4991;43.566;27.820;2023-02-01T16:20:35;7.87;;;5.37;;
9904;SDS011;4991;43.566;27.820;2023-02-01T16:23:02;9.80;;;5.60;;
9904;SDS011;4991;43.566;27.820;2023-02-01T16:25:28;8.10;;;6.17;;
9904;SDS011;4991;43.566;27.820;2023-02-01T16:27:54;5.00;;;4.13;;
9904;SDS011;4991;43.566;27.820;2023-02-01T16:30:20;5.80;;;4.97;;
9904;SDS011;4991;43.566;27.820;2023-02-01T16:32:48;8.27;;;4.53;;
9904;SDS011;4991;43.566;27.820;2023-02-01T16:35:24;5.73;;;4.00;;
9904;SDS011;4991;43.566;27.820;2023-02-01T16:37:56;6.77;;;4.77;;
9904;SDS011;4991;43.566;27.820;2023-02-01T16:40:23;7.47;;;5.37;;
9904;SDS011;4991;43.566;27.820;2023-02-01T16:42:50;8.83;;;4.63;;
9904;SDS011;4991;43.566;27.820;2023-02-01T16:45:17;6.87;;;4.03;;
9904;SDS011;4991;43.566;27.820;2023-02-01T16:47:47;6.80;;;4.10;;
9904;SDS011;4991;43.566;27.820;2023-02-01T16:50:18;7.40;;;4.70;;
9904;SDS011;4991;43.566;27.820;2023-02-01T16:52:46;11.73;;;4.57;;
9904;SDS011;4991;43.566;27.820;2023-02-01T16:55:13;5.60;;;4.43;;
9904;SDS011;4991;43.566;27.820;2023-02-01T16:57:40;7.83;;;4.03;;
9904;SDS011;4991;43.566;27.820;2023-02-01T17:00:07;7.27;;;4.80;;
9904;SDS011;4991;43.566;27.820;2023-02-01T17:02:34;7.90;;;5.90;;
9904;SDS011;4991;43.566;27.820;2023-02-01T17:04:59;9.10;;;5.13;;
9904;SDS011;4991;43.566;27.820;2023-02-01T17:07:25;7.47;;;5.13;;
9904;SDS011;4991;43.566;27.820;2023-02-01T17:09:51;5.27;;;4.30;;
9904;SDS011;4991;43.566;27.820;2023-02-01T17:12:50;9.03;;;5.00;;
9904;SDS011;4991;43.566;27.820;2023-02-01T17:15:10;7.73;;;4.63;;
9904;SDS011;4991;43.566;27.820;2023-02-01T17:17:36;5.57;;;3.57;;
9904;SDS011;4991;43.566;27.820;2023-02-01T17:20:04;6.30;;;4.00;;
9904;SDS011;4991;43.566;27.820;2023-02-01T17:22:31;6.30;;;4.10;;
9904;SDS011;4991;43.566;27.820;2023-02-01T17:24:57;9.77;;;5.60;;
9904;SDS011;4991;43.566;27.820;2023-02-01T17:27:22;5.63;;;4.20;;
9904;SDS011;4991;43.566;27.820;2023-02-01T17:29:48;10.17;;;5.13;;
9904;SDS011;4991;43.566;27.820;2023-02-01T17:32:21;6.60;;;3.70;;
9904;SDS011;4991;43.566;27.820;2023-02-01T17:34:49;9.10;;;4.57;;
9904;SDS011;4991;43.566;27.820;2023-02-01T17:37:22;6.23;;;4.40;;